Time;durP1;ratioP1;P1;durP2;ratioP2;P2;SDS_P1;SDS_P2;PMS_P1;PMS_P2;Temp;Humidity;BMP_temperature;BMP_pressure;BME280_temperature;BME280_humidity;BME280_pressure;Samples;Min_cycle;Max_cycle;Signal;HPM_P1;HPM_P2
2022/08/21 00:01:42;;;;;;;8.48;3.67;;;;;;;23.92;60.25;98810.50;6193376;23;19996;-92
2022/08/21 00:04:08;;;;;;;8.18;3.78;;;;;;;23.76;62.78;98810.63;6193393;23;20003;-93
2022/08/21 00:06:34;;;;;;;7.03;3.50;;;;;;;23.71;65.33;98805.47;6169064;23;20058;-93
2022/08/21 00:09:00;;;;;;;8.25;4.07;;;;;;;23.74;64.63;98797.28;6193995;23;20000;-93
2022/08/21 00:11:27;;;;;;;5.47;3.75;;;;;;;23.62;65.54;98796.69;6193178;23;20065;-93
2022/08/21 00:13:53;;;;;;;5.68;3.85;;;;;;;23.47;65.65;98796.47;6168682;23;20016;-93
2022/08/21 00:16:18;;;;;;;6.57;4.10;;;;;;;23.31;68.68;98798.56;6193507;23;20000;-94
2022/08/21 00:18:43;;;;;;;6.22;3.47;;;;;;;23.18;68.11;98793.28;6168090;23;20411;-94
2022/08/21 00:21:11;;;;;;;6.43;4.47;;;;;;;23.10;67.71;98805.28;6192967;23;20288;-93
2022/08/21 00:23:37;;;;;;;6.85;3.70;;;;;;;22.93;68.34;98802.97;6193921;23;20000;-92
2022/08/21 00:26:06;;;;;;;7.30;4.00;;;;;;;22.87;68.58;98799.78;6192978;23;20427;-93
2022/08/21 00:28:31;;;;;;;11.68;4.82;;;;;;;22.68;69.74;98786.06;6193085;23;20007;-93
2022/08/21 00:30:57;;;;;;;6.60;4.40;;;;;;;22.57;71.29;98775.69;6193542;23;20000;-93
2022/08/21 00:33:23;;;;;;;5.60;4.22;;;;;;;22.86;69.04;98787.19;6195044;23;20003;-92
2022/08/21 00:35:48;;;;;;;9.18;4.10;;;;;;;22.86;69.72;98778.94;6195071;23;20051;-92
2022/08/21 00:38:14;;;;;;;13.95;5.28;;;;;;;22.85;70.94;98776.56;6194992;23;19996;-92
2022/08/21 00:40:51;;;;;;;7.85;4.13;;;;;;;22.74;70.40;98760.72;6194871;23;20007;-92
2022/08/21 00:43:20;;;;;;;7.95;4.72;;;;;;;22.53;70.50;98743.84;6195139;23;20084;-92
2022/08/21 00:45:46;;;;;;;9.68;4.30;;;;;;;22.54;70.90;98737.22;6170453;23;20003;-93
2022/08/21 00:48:11;;;;;;;7.50;4.50;;;;;;;22.34;73.78;98720.00;6220263;23;20000;-92
2022/08/21 00:50:40;;;;;;;7.65;4.40;;;;;;;22.26;73.08;98707.28;6195160;23;20431;-92
2022/08/21 00:53:05;;;;;;;7.40;4.57;;;;;;;22.23;72.76;98688.81;6195681;23;20063;-92
2022/08/21 00:55:31;;;;;;;8.40;4.47;;;;;;;22.30;71.62;98689.75;6194705;23;20000;-93
2022/08/21 00:57:57;;;;;;;7.30;5.07;;;;;;;22.21;74.49;98683.69;6195172;23;20003;-92
2022/08/21 01:00:29;;;;;;;14.40;6.10;;;;;;;22.14;77.72;98669.81;6195324;23;19996;-92
2022/08/21 01:02:56;;;;;;;10.90;5.88;;;;;;;22.16;77.67;98679.28;6196752;23;20000;-92
2022/08/21 01:05:21;;;;;;;9.02;6.13;;;;;;;21.87;78.44;98653.28;6195454;23;20000;-92
2022/08/21 01:07:47;;;;;;;9.30;5.97;;;;;;;21.65;77.39;98643.03;6195067;23;20000;-92
2022/08/21 01:10:12;;;;;;;9.32;5.70;;;;;;;21.85;77.54;98644.63;6195299;23;20011;-92
2022/08/21 01:12:38;;;;;;;8.63;5.63;;;;;;;21.80;76.83;98618.28;6220536;23;20488;-93
2022/08/21 01:15:04;;;;;;;8.43;5.65;;;;;;;21.61;78.10;98609.28;6195610;23;20011;-92
2022/08/21 01:17:30;;;;;;;11.40;5.85;;;;;;;21.55;78.56;98609.56;6195236;23;19997;-92
2022/08/21 01:19:59;;;;;;;10.35;6.28;;;;;;;21.22;77.97;98590.84;6195618;23;20007;-93
2022/08/21 01:22:26;;;;;;;7.22;6.18;;;;;;;21.42;77.94;98579.94;6195327;23;20328;-92
2022/08/21 01:24:51;;;;;;;9.73;6.38;;;;;;;21.52;78.29;98562.91;6195885;23;20004;-91
2022/08/21 01:27:17;;;;;;;9.20;5.32;;;;;;;21.52;77.59;98557.44;6194749;23;20352;-92
2022/08/21 01:29:43;;;;;;;8.77;5.95;;;;;;;21.58;79.43;98565.03;6195152;23;20000;-92
2022/08/21 01:32:13;;;;;;;10.52;6.70;;;;;;;21.47;81.23;98564.00;6195313;23;20004;-93
2022/08/21 01:34:41;;;;;;;11.23;6.40;;;;;;;21.50;80.30;98555.09;6195967;23;20031;-92
2022/08/21 01:37:07;;;;;;;11.07;6.90;;;;;;;21.48;80.00;98578.50;6170255;23;20000;-91
2022/08/21 01:39:32;;;;;;;12.45;6.43;;;;;;;21.49;80.52;98599.25;6194980;23;20427;-92
2022/08/21 01:41:58;;;;;;;9.20;6.85;;;;;;;21.65;80.09;98597.25;6194833;23;20071;-93
2022/08/21 01:44:24;;;;;;;9.40;6.63;;;;;;;21.50;81.10;98587.13;6220523;23;20015;-92
2022/08/21 01:46:49;;;;;;;8.95;6.53;;;;;;;21.52;81.22;98593.06;6195249;23;20003;-91
2022/08/21 01:49:15;;;;;;;12.18;6.05;;;;;;;21.56;79.78;98586.50;6169857;23;20004;-92
2022/08/21 01:51:41;;;;;;;10.80;5.90;;;;;;;21.65;80.74;98574.53;6170175;23;20011;-92
2022/08/21 01:54:07;;;;;;;10.95;5.50;;;;;;;21.69;78.85;98581.66;6194660;23;20000;-91
2022/08/21 01:56:40;;;;;;;8.43;4.80;;;;;;;21.88;77.59;98600.03;6195234;23;20012;-93
2022/08/21 01:59:06;;;;;;;6.85;4.18;;;;;;;22.01;76.91;98589.69;6195800;23;19992;-93
2022/08/21 02:01:31;;;;;;;7.28;4.35;;;;;;;22.01;76.59;98589.69;6194635;23;20008;-92
2022/08/21 02:03:59;;;;;;;7.68;4.15;;;;;;;22.17;75.59;98597.81;6194133;23;20011;-93
2022/08/21 02:06:27;;;;;;;6.47;3.88;;;;;;;22.14;73.63;98582.06;6219824;23;20353;-92
2022/08/21 02:08:52;;;;;;;6.38;4.90;;;;;;;22.03;76.14;98586.59;6194943;23;20019;-92
2022/08/21 02:11:19;;;;;;;5.85;4.47;;;;;;;21.78;77.32;98565.00;6195284;23;20004;-91
2022/08/21 02:13:46;;;;;;;7.13;4.35;;;;;;;21.96;76.03;98579.03;6164136;23;20051;-92
2022/08/21 02:16:12;;;;;;;6.35;4.85;;;;;;;21.59;78.02;98565.81;6189310;23;20454;-92
2022/08/21 02:18:38;;;;;;;7.55;5.10;;;;;;;21.46;78.70;98558.88;6214708;23;20423;-92
2022/08/21 02:21:04;;;;;;;9.25;5.28;;;;;;;21.40;79.35;98567.38;6214271;23;20000;-92
2022/08/21 02:23:31;;;;;;;11.65;5.10;;;;;;;21.44;78.51;98561.22;6189056;23;19997;-92
2022/08/21 02:25:57;;;;;;;7.13;4.85;;;;;;;21.46;77.32;98567.09;6213973;23;20084;-92
2022/08/21 02:28:23;;;;;;;6.03;5.10;;;;;;;21.50;78.22;98574.25;6189114;23;20511;-91
2022/08/21 02:30:48;;;;;;;6.57;4.85;;;;;;;21.53;76.88;98586.44;6164914;23;20000;-92
2022/08/21 02:33:15;;;;;;;6.60;4.82;;;;;;;21.43;75.90;98559.63;6189596;23;20023;-91
2022/08/21 02:35:44;;;;;;;5.88;4.57;;;;;;;21.40;76.25;98564.63;6189314;23;20027;-92
2022/08/21 02:38:14;;;;;;;6.28;4.20;;;;;;;21.36;76.58;98569.25;6214437;23;19997;-92
2022/08/21 02:40:41;;;;;;;7.13;4.90;;;;;;;21.42;77.16;98588.16;6165358;23;20007;-92
2022/08/21 02:43:07;;;;;;;5.93;4.80;;;;;;;21.39;77.37;98575.94;6189606;23;20001;-92
2022/08/21 02:45:33;;;;;;;7.13;4.60;;;;;;;21.48;78.46;98586.72;6189107;23;20087;-91
2022/08/21 02:48:03;;;;;;;7.05;4.43;;;;;;;21.42;77.87;98572.53;6163844;23;20032;-92
2022/08/21 02:50:32;;;;;;;8.30;4.70;;;;;;;21.54;78.05;98577.84;6215207;23;20067;-91
2022/08/21 02:52:57;;;;;;;6.50;4.57;;;;;;;21.58;75.64;98581.47;6213748;23;20001;-92
2022/08/21 02:55:28;;;;;;;7.03;4.30;;;;;;;21.61;77.18;98592.84;6213658;23;20324;-92
2022/08/21 02:57:56;;;;;;;8.60;5.10;;;;;;;21.58;77.37;98580.66;6189728;23;20000;-92
2022/08/21 03:00:22;;;;;;;8.27;4.85;;;;;;;21.54;77.99;98579.78;6213999;23;20031;-91
2022/08/21 03:02:48;;;;;;;7.63;4.85;;;;;;;21.63;77.32;98582.31;6214109;23;20008;-91
2022/08/21 03:05:14;;;;;;;8.23;4.85;;;;;;;21.66;76.79;98579.63;6164224;23;20001;-92
2022/08/21 03:07:43;;;;;;;7.38;5.13;;;;;;;21.76;76.56;98586.47;6188927;23;20009;-92
2022/08/21 03:10:09;;;;;;;7.38;4.50;;;;;;;21.72;75.12;98589.16;6213741;23;20004;-91
2022/08/21 03:12:37;;;;;;;6.00;4.22;;;;;;;21.54;77.27;98566.91;6213636;23;20440;-92
2022/08/21 03:15:06;;;;;;;11.48;5.43;;;;;;;21.46;77.94;98559.69;6164115;23;20096;-91
2022/08/21 03:17:36;;;;;;;7.35;4.70;;;;;;;21.53;78.89;98564.53;6215158;23;19981;-92
2022/08/21 03:20:07;;;;;;;6.03;4.53;;;;;;;21.48;77.84;98564.78;6212946;23;20446;-92
2022/08/21 03:22:35;;;;;;;7.70;5.10;;;;;;;21.44;78.06;98569.44;6212570;23;20027;-91
2022/08/21 03:25:03;;;;;;;8.15;5.10;;;;;;;21.63;78.77;98574.09;6189709;23;20001;-91
2022/08/21 03:27:30;;;;;;;7.28;4.95;;;;;;;21.54;80.12;98575.13;6214803;23;20005;-91
2022/08/21 03:30:00;;;;;;;6.82;5.28;;;;;;;21.44;80.02;98575.69;6190029;23;20008;-91
2022/08/21 03:32:28;;;;;;;7.07;5.18;;;;;;;21.46;79.68;98586.28;6188573;23;20509;-91
2022/08/21 03:34:56;;;;;;;6.65;5.65;;;;;;;21.43;80.79;98601.50;6188748;23;19996;-91
2022/08/21 03:37:21;;;;;;;9.38;5.55;;;;;;;21.46;79.93;98610.94;6189010;23;20001;-91
2022/08/21 03:39:48;;;;;;;7.50;5.38;;;;;;;21.33;79.82;98602.03;6164871;23;20063;-91
2022/08/21 03:42:15;;;;;;;7.57;5.25;;;;;;;21.34;79.10;98607.16;6164470;23;19997;-91
2022/08/21 03:44:42;;;;;;;7.13;5.28;;;;;;;21.14;79.26;98587.16;6188383;23;20019;-91
2022/08/21 03:47:07;;;;;;;8.70;5.22;;;;;;;21.19;80.33;98605.28;6164181;23;20391;-91
2022/08/21 03:49:33;;;;;;;9.00;5.53;;;;;;;21.26;81.48;98621.06;6163743;23;20062;-91
2022/08/21 03:52:00;;;;;;;8.68;5.47;;;;;;;21.19;81.59;98617.00;6215370;23;19997;-91
2022/08/21 03:54:26;;;;;;;10.98;5.30;;;;;;;21.28;80.23;98625.00;6188071;23;20005;-91
2022/08/21 03:56:52;;;;;;;8.98;5.70;;;;;;;21.36;79.68;98631.44;6213262;23;20000;-91
2022/08/21 03:59:19;;;;;;;7.75;5.45;;;;;;;21.35;80.09;98625.19;6188049;23;20004;-91
2022/08/21 04:01:57;;;;;;;7.88;5.47;;;;;;;21.38;80.58;98637.34;6188540;23;20005;-91
2022/08/21 04:04:25;;;;;;;9.73;5.47;;;;;;;21.46;80.56;98654.75;6189245;23;20482;-92
2022/08/21 04:06:50;;;;;;;7.40;5.75;;;;;;;21.46;79.79;98643.78;6189628;23;20028;-91
2022/08/21 04:09:18;;;;;;;14.73;6.05;;;;;;;21.36;80.25;98642.41;6167103;23;20092;-91
2022/08/21 04:11:45;;;;;;;9.68;6.18;;;;;;;21.36;80.34;98640.44;6239974;23;20079;-90
2022/08/21 04:14:17;;;;;;;9.73;6.90;;;;;;;21.41;79.68;98639.38;6190438;23;20024;-91
2022/08/21 04:16:43;;;;;;;11.93;7.95;;;;;;;21.45;78.67;98643.00;6190952;23;20000;-90
2022/08/21 04:19:09;;;;;;;14.30;8.20;;;;;;;21.50;79.52;98656.44;6165727;23;20416;-90
2022/08/21 04:21:40;;;;;;;13.23;8.80;;;;;;;21.53;80.04;98657.66;6166800;23;20067;-91
2022/08/21 04:24:07;;;;;;;10.20;7.00;;;;;;;21.62;79.80;98668.41;6217803;23;20032;-90
2022/08/21 04:26:34;;;;;;;13.15;7.85;;;;;;;21.45;79.59;98659.44;6165295;23;20360;-90
2022/08/21 04:29:00;;;;;;;16.75;6.93;;;;;;;21.64;78.88;98671.56;6165383;23;20032;-91
2022/08/21 04:31:28;;;;;;;9.88;6.60;;;;;;;21.69;79.57;98668.56;6215355;23;19996;-91
2022/08/21 04:33:54;;;;;;;13.00;6.22;;;;;;;21.56;79.36;98657.75;6191626;23;20000;-90
2022/08/21 04:36:20;;;;;;;10.77;6.40;;;;;;;21.50;79.07;98652.88;6190573;23;20001;-90
2022/08/21 04:38:46;;;;;;;9.02;6.80;;;;;;;21.52;79.66;98667.00;6215891;23;20001;-94
2022/08/21 04:41:12;;;;;;;9.25;6.63;;;;;;;21.44;79.55;98670.78;6166269;23;20502;-92
2022/08/21 04:43:38;;;;;;;11.85;6.57;;;;;;;21.41;80.35;98658.53;6190205;23;20024;-94
2022/08/21 04:46:05;;;;;;;8.30;6.32;;;;;;;21.58;78.89;98673.78;6215557;23;20012;-92
2022/08/21 04:48:30;;;;;;;8.90;6.90;;;;;;;21.43;78.46;98661.75;6190736;23;20015;-91
2022/08/21 04:51:11;;;;;;;8.30;6.22;;;;;;;21.31;78.75;98659.91;6190198;23;19996;-91
2022/08/21 04:53:41;;;;;;;12.18;6.40;;;;;;;21.39;79.00;98675.34;6193946;23;20000;-92
2022/08/21 04:56:12;;;;;;;11.48;7.20;;;;;;;21.42;79.08;98689.47;6192212;23;20015;-91
2022/08/21 04:58:38;;;;;;;10.60;7.95;;;;;;;21.40;78.69;98689.84;6191160;23;20408;-91
2022/08/21 05:01:06;;;;;;;10.20;6.90;;;;;;;21.39;79.58;98693.72;6165620;23;20005;-92
2022/08/21 05:03:33;;;;;;;12.93;7.25;;;;;;;21.47;80.09;98694.69;6215588;23;20076;-91
2022/08/21 05:05:59;;;;;;;8.52;6.53;;;;;;;21.45;79.55;98686.03;6166154;23;20022;-92
2022/08/21 05:08:25;;;;;;;10.13;6.60;;;;;;;21.49;79.59;98684.97;6190422;23;20020;-92
2022/08/21 05:10:51;;;;;;;8.75;6.45;;;;;;;21.67;79.10;98695.53;6189686;23;20008;-92
2022/08/21 05:13:16;;;;;;;11.13;6.78;;;;;;;21.80;78.00;98708.72;6163902;23;20096;-91
2022/08/21 05:15:42;;;;;;;9.23;6.78;;;;;;;21.75;78.37;98708.22;6140047;23;20020;-92
2022/08/21 05:18:08;;;;;;;8.95;6.93;;;;;;;21.79;77.95;98711.84;6190364;23;20058;-93
2022/08/21 05:20:38;;;;;;;9.80;6.90;;;;;;;21.85;78.25;98702.19;6190254;23;20063;-93
2022/08/21 05:23:30;;;;;;;12.93;7.28;;;;;;;21.84;79.12;98700.56;6166608;23;20015;-91
2022/08/21 05:25:57;;;;;;;11.35;6.60;;;;;;;21.98;76.95;98698.13;6124818;23;20051;-91
2022/08/21 05:28:23;;;;;;;9.57;6.70;;;;;;;21.79;78.52;98677.00;6129355;23;20044;-91
2022/08/21 05:30:48;;;;;;;7.47;6.47;;;;;;;21.82;77.70;98688.38;6128810;23;20029;-91
2022/08/21 05:33:14;;;;;;;9.57;6.40;;;;;;;22.00;77.94;98701.31;6081145;23;20059;-91
2022/08/21 05:35:40;;;;;;;11.05;6.85;;;;;;;21.97;77.92;98698.47;6105073;23;20047;-91
2022/08/21 05:38:05;;;;;;;11.25;7.72;;;;;;;22.06;77.97;98701.81;6081312;23;20055;-91
2022/08/21 05:40:31;;;;;;;11.70;8.18;;;;;;;22.02;78.11;98697.38;6104826;23;20037;-92
2022/08/21 05:42:58;;;;;;;11.82;7.78;;;;;;;22.06;77.87;98695.50;6080718;23;20001;-91
2022/08/21 05:45:27;;;;;;;14.13;8.05;;;;;;;22.06;77.75;98698.25;6105659;23;20032;-92
2022/08/21 05:47:53;;;;;;;9.70;7.45;;;;;;;22.15;77.33;98696.09;6105198;23;20005;-91
2022/08/21 05:50:19;;;;;;;13.10;7.93;;;;;;;22.38;76.56;98704.41;6104260;23;20015;-92
2022/08/21 05:52:45;;;;;;;12.10;8.35;;;;;;;22.35;77.26;98705.09;6104956;23;20005;-93
2022/08/21 05:55:11;;;;;;;13.10;7.20;;;;;;;22.31;76.79;98694.09;6129615;23;20161;-91
2022/08/21 05:57:36;;;;;;;12.05;8.10;;;;;;;22.33;76.63;98688.22;6153410;23;20005;-93
2022/08/21 06:00:03;;;;;;;12.90;7.63;;;;;;;22.55;76.51;98714.88;6189577;23;20005;-91
2022/08/21 06:02:30;;;;;;;12.13;7.80;;;;;;;22.50;76.89;98709.72;6189814;23;20001;-92
2022/08/21 06:04:57;;;;;;;13.68;9.70;;;;;;;22.58;75.45;98716.13;6190620;23;20027;-94
2022/08/21 06:07:25;;;;;;;11.15;7.70;;;;;;;22.64;75.91;98711.94;6189875;23;20336;-92
2022/08/21 06:09:51;;;;;;;12.65;8.27;;;;;;;22.65;75.76;98715.47;6189486;23;20004;-92
2022/08/21 06:12:19;;;;;;;14.55;8.45;;;;;;;22.73;75.96;98723.44;6164139;23;20100;-92
2022/08/21 06:14:45;;;;;;;13.75;7.93;;;;;;;22.76;75.47;98732.88;6219479;23;20018;-92
2022/08/21 06:17:12;;;;;;;11.93;8.30;;;;;;;22.67;75.17;98718.63;6194188;23;20078;-91
2022/08/21 06:19:39;;;;;;;12.10;8.38;;;;;;;22.84;74.85;98731.06;6194417;23;19996;-92
2022/08/21 06:22:06;;;;;;;12.65;8.30;;;;;;;22.80;74.99;98720.03;6169316;23;20327;-91
2022/08/21 06:24:32;;;;;;;9.63;7.63;;;;;;;22.95;74.94;98735.59;6219488;23;20434;-91
2022/08/21 06:26:58;;;;;;;12.07;7.82;;;;;;;22.93;74.89;98715.94;6194220;23;20023;-92
2022/08/21 06:29:24;;;;;;;10.10;7.25;;;;;;;23.12;73.94;98717.06;6218445;23;20008;-91
2022/08/21 06:31:50;;;;;;;13.85;8.15;;;;;;;23.20;72.94;98714.03;6240876;23;20079;-92
2022/08/21 06:34:17;;;;;;;10.02;7.30;;;;;;;23.33;72.82;98719.31;6192854;23;20058;-92
2022/08/21 06:36:42;;;;;;;10.02;7.32;;;;;;;23.40;72.18;98724.91;6191767;23;20012;-92
2022/08/21 06:39:13;;;;;;;9.45;6.70;;;;;;;23.50;71.02;98726.25;6169116;23;20005;-91
2022/08/21 06:41:38;;;;;;;9.25;6.68;;;;;;;23.56;71.86;98741.25;6195958;23;20000;-92
2022/08/21 06:44:04;;;;;;;13.50;8.02;;;;;;;23.62;71.20;98730.72;6204800;23;20005;-91
2022/08/21 06:46:30;;;;;;;10.90;6.60;;;;;;;23.50;71.55;98731.75;6190427;23;20004;-92
2022/08/21 06:48:57;;;;;;;10.25;6.40;;;;;;;23.67;69.57;98722.16;6193931;23;20351;-93
2022/08/21 06:51:23;;;;;;;9.00;5.88;;;;;;;23.59;68.22;98716.56;6169997;23;20004;-92
2022/08/21 06:53:50;;;;;;;5.85;5.00;;;;;;;23.74;68.13;98738.72;6194245;23;20004;-93
2022/08/21 06:56:15;;;;;;;8.20;5.53;;;;;;;23.54;68.72;98716.88;6193635;23;20022;-93
2022/08/21 06:58:40;;;;;;;10.82;5.13;;;;;;;23.56;69.03;98714.56;6194871;23;20004;-92
2022/08/21 07:01:06;;;;;;;6.18;4.65;;;;;;;23.57;68.40;98735.38;6180009;23;20000;-92
2022/08/21 07:03:38;;;;;;;23.77;12.82;;;;;;;23.70;67.65;98715.91;6190051;23;20016;-93
2022/08/21 07:06:05;;;;;;;8.13;5.22;;;;;;;23.72;67.70;98721.81;6169641;23;20003;-93
2022/08/21 07:08:31;;;;;;;8.57;4.85;;;;;;;23.60;67.48;98704.41;6192846;23;20358;-92
2022/08/21 07:10:58;;;;;;;8.38;5.28;;;;;;;23.97;67.64;98724.94;6218716;23;20439;-92
2022/08/21 07:13:26;;;;;;;7.22;5.40;;;;;;;23.70;68.29;98705.72;6193923;23;20024;-93
2022/08/21 07:15:52;;;;;;;11.02;5.32;;;;;;;23.82;68.57;98712.94;6219538;23;20000;-92
2022/08/21 07:18:18;;;;;;;7.32;5.10;;;;;;;23.78;68.22;98703.84;6194693;23;20023;-92
2022/08/21 07:20:44;;;;;;;11.90;5.20;;;;;;;23.88;66.89;98705.94;6194977;23;20004;-92
2022/08/21 07:23:23;;;;;;;8.85;5.47;;;;;;;23.80;67.75;98682.28;6194398;23;20496;-93
2022/08/21 07:25:50;;;;;;;7.38;5.10;;;;;;;23.88;68.03;98689.47;6196371;23;20004;-93
2022/08/21 07:28:16;;;;;;;9.20;5.72;;;;;;;23.96;66.92;98690.34;6193443;23;20007;-92
2022/08/21 07:30:42;;;;;;;8.15;4.50;;;;;;;24.03;66.92;98678.63;6194129;23;20008;-93
2022/08/21 07:33:08;;;;;;;7.13;4.63;;;;;;;24.17;65.88;98684.28;6194682;23;20004;-91
2022/08/21 07:35:34;;;;;;;6.75;4.80;;;;;;;24.25;66.53;98672.19;6193991;23;20047;-93
2022/08/21 07:38:00;;;;;;;7.93;5.32;;;;;;;24.20;67.64;98678.84;6168576;23;19996;-95
2022/08/21 07:40:26;;;;;;;8.27;5.07;;;;;;;24.37;66.57;98680.19;6219718;23;20000;-93
2022/08/21 07:42:52;;;;;;;7.90;4.55;;;;;;;24.35;65.34;98674.25;6194418;23;20500;-94
2022/08/21 07:45:24;;;;;;;6.60;4.93;;;;;;;24.43;64.78;98688.09;6219679;23;20004;-92
2022/08/21 07:47:49;;;;;;;6.65;4.28;;;;;;;24.51;63.94;98684.25;6194207;23;20015;-93
2022/08/21 07:50:15;;;;;;;8.60;4.43;;;;;;;24.65;64.22;98686.34;6194521;23;20000;-93
2022/08/21 07:52:42;;;;;;;7.75;4.70;;;;;;;24.31;65.71;98683.66;6217320;23;20008;-93
2022/08/21 07:55:12;;;;;;;9.20;4.57;;;;;;;24.34;65.06;98674.63;6219101;23;20057;-93
2022/08/21 07:57:38;;;;;;;7.30;4.28;;;;;;;24.49;63.43;98689.34;6194392;23;20077;-92
2022/08/21 08:00:07;;;;;;;9.63;4.45;;;;;;;24.57;63.06;98685.50;6218977;23;20346;-92
2022/08/21 08:02:32;;;;;;;5.53;4.45;;;;;;;24.65;63.05;98672.59;6220631;23;20000;-95
2022/08/21 08:05:07;;;;;;;7.65;4.57;;;;;;;24.67;62.72;98673.78;6194385;23;20011;-90
2022/08/21 08:07:34;;;;;;;6.05;4.13;;;;;;;24.72;61.65;98678.97;6193618;23;20000;-92
2022/08/21 08:09:59;;;;;;;6.38;4.60;;;;;;;24.62;61.56;98668.66;6219596;23;19996;-91
2022/08/21 08:12:29;;;;;;;7.57;4.43;;;;;;;24.83;62.01;98675.50;6193174;23;20312;-93
2022/08/21 08:14:58;;;;;;;6.63;4.40;;;;;;;24.85;60.86;98657.41;6165837;23;20134;-92
2022/08/21 08:17:23;;;;;;;5.30;4.18;;;;;;;25.02;60.22;98662.25;6141053;23;20001;-92
2022/08/21 08:19:50;;;;;;;6.35;4.65;;;;;;;25.26;61.23;98670.34;6163574;23;20003;-93
2022/08/21 08:22:17;;;;;;;7.40;5.03;;;;;;;25.17;60.72;98654.91;6189170;23;20000;-93
2022/08/21 08:24:43;;;;;;;6.93;4.30;;;;;;;25.13;61.18;98648.56;6139331;23;20020;-94
2022/08/21 08:27:09;;;;;;;9.80;4.78;;;;;;;25.42;59.86;98662.53;6189155;23;20008;-94
2022/08/21 08:29:36;;;;;;;8.52;4.60;;;;;;;25.35;61.10;98660.53;6163880;23;20008;-91
2022/08/21 08:32:04;;;;;;;5.60;4.13;;;;;;;25.36;59.54;98642.06;6140017;23;20351;-92
2022/08/21 08:34:30;;;;;;;9.48;4.18;;;;;;;25.43;60.13;98649.56;6139125;23;20454;-91
2022/08/21 08:36:57;;;;;;;7.32;4.25;;;;;;;25.60;59.55;98657.91;6139112;23;20005;-91
2022/08/21 08:39:25;;;;;;;7.45;4.28;;;;;;;25.81;58.23;98657.19;6140667;23;20016;-94
2022/08/21 08:41:56;;;;;;;6.35;3.88;;;;;;;25.69;58.67;98642.97;6164599;23;20004;-91
2022/08/21 08:44:21;;;;;;;7.78;4.05;;;;;;;26.00;57.00;98655.31;6164182;23;20055;-92
2022/08/21 08:46:48;;;;;;;15.75;9.73;;;;;;;25.92;57.67;98648.19;6164144;23;19997;-91
2022/08/21 08:49:20;;;;;;;5.68;4.15;;;;;;;26.19;57.59;98652.22;6163607;23;20381;-91
2022/08/21 08:52:18;;;;;;;7.40;4.00;;;;;;;26.38;56.78;98642.00;6188070;23;20454;-92
2022/08/21 08:54:55;;;;;;;6.57;3.83;;;;;;;26.41;56.02;98632.94;6100793;23;20008;-92
2022/08/21 08:57:22;;;;;;;5.82;4.10;;;;;;;26.61;54.52;98625.88;6077248;23;20046;-93
2022/08/21 08:59:52;;;;;;;4.90;3.70;;;;;;;26.63;55.10;98628.25;6076664;23;20024;-93
2022/08/21 09:02:18;;;;;;;7.25;4.38;;;;;;;27.01;53.52;98636.88;6076951;23;20030;-90
2022/08/21 09:04:45;;;;;;;7.35;4.05;;;;;;;26.98;53.57;98615.59;6076229;23;20005;-93
2022/08/21 09:07:32;;;;;;;6.43;3.75;;;;;;;27.39;52.63;98638.03;6076683;23;20096;-93
2022/08/21 09:10:13;;;;;;;6.22;4.22;;;;;;;27.20;52.54;98630.91;6125150;23;20006;-90
2022/08/21 09:12:53;;;;;;;8.93;3.80;;;;;;;27.30;52.05;98625.81;6129260;23;20179;-93
2022/08/21 09:15:37;;;;;;;8.37;4.83;;;;;;;27.39;52.53;98610.38;6130217;23;20052;-92
2022/08/21 09:18:28;;;;;;;6.97;3.83;;;;;;;27.46;51.64;98606.00;6129569;23;20343;-92
2022/08/21 09:21:11;;;;;;;5.75;3.80;;;;;;;27.67;51.79;98600.38;6129531;23;20008;-92
2022/08/21 09:24:21;;;;;;;6.28;3.60;;;;;;;27.74;51.06;98602.31;6153836;23;20006;-91
2022/08/21 09:27:28;;;;;;;4.88;4.07;;;;;;;27.84;49.87;98601.47;6212721;23;20055;-93
2022/08/21 09:29:54;;;;;;;4.38;3.70;;;;;;;27.86;49.58;98579.75;6099886;23;20010;-93
2022/08/21 09:32:21;;;;;;;6.57;4.35;;;;;;;27.87;49.26;98572.22;6140470;23;20443;-93
2022/08/21 09:35:13;;;;;;;9.48;4.22;;;;;;;27.96;49.33;98573.34;6190359;23;20005;-94
2022/08/21 09:38:07;;;;;;;6.63;4.32;;;;;;;28.12;49.23;98578.41;6226985;23;20328;-94
2022/08/21 09:40:37;;;;;;;6.82;3.75;;;;;;;28.20;48.42;98579.94;6213071;23;20004;-93
2022/08/21 09:43:25;;;;;;;8.00;3.78;;;;;;;28.20;47.73;98568.84;6189490;23;20071;-93
2022/08/21 09:46:07;;;;;;;8.77;4.03;;;;;;;28.45;47.73;98567.06;6215947;23;20042;-94
2022/08/21 09:48:47;;;;;;;4.72;3.42;;;;;;;28.39;47.57;98572.28;6166253;23;20036;-93
2022/08/21 09:51:15;;;;;;;5.60;3.40;;;;;;;28.40;47.90;98560.75;6191216;23;20012;-93
2022/08/21 09:53:47;;;;;;;7.10;4.10;;;;;;;28.42;46.86;98566.69;6166035;23;20004;-92
2022/08/21 09:59:23;;;;;;;7.18;3.92;;;;;;;28.76;46.10;98562.44;6194323;23;20395;-92
2022/08/21 10:01:49;;;;;;;5.82;3.50;;;;;;;28.74;46.43;98549.03;6214355;23;20070;-91
2022/08/21 10:04:15;;;;;;;6.60;3.63;;;;;;;28.56;46.73;98546.41;6188992;23;20339;-92
2022/08/21 10:06:41;;;;;;;6.40;4.10;;;;;;;28.72;46.58;98554.19;6189646;23;20004;-92
2022/08/21 10:09:15;;;;;;;5.85;3.80;;;;;;;28.88;46.67;98550.84;6188944;23;20362;-92
2022/08/21 10:11:50;;;;;;;4.82;3.60;;;;;;;28.87;44.98;98554.81;6189690;23;20439;-91
2022/08/21 10:14:44;;;;;;;7.55;3.35;;;;;;;28.85;45.19;98550.91;6214493;23;20067;-91
2022/08/21 10:17:15;;;;;;;6.57;3.42;;;;;;;28.80;46.12;98552.91;6214118;23;20005;-91
2022/08/21 10:20:06;;;;;;;6.05;3.50;;;;;;;28.93;44.30;98541.28;6188740;23;20000;-92
2022/08/21 10:22:52;;;;;;;5.90;3.40;;;;;;;28.73;42.53;98522.50;6189611;23;20489;-93
2022/08/21 10:25:22;;;;;;;4.05;2.90;;;;;;;28.97;43.98;98540.06;6192220;23;20079;-92
2022/08/21 10:28:13;;;;;;;4.60;3.00;;;;;;;29.13;42.85;98545.03;6190451;23;20004;-92
2022/08/21 10:30:43;;;;;;;5.35;3.33;;;;;;;29.01;42.33;98540.81;6216305;23;20080;-92
2022/08/21 10:33:39;;;;;;;6.15;3.40;;;;;;;29.13;41.68;98549.81;6238945;23;20414;-92
2022/08/21 10:36:26;;;;;;;4.57;3.10;;;;;;;29.04;42.03;98541.97;6214020;23;20012;-93
2022/08/21 10:39:25;;;;;;;5.07;3.22;;;;;;;29.26;40.29;98542.53;6190110;23;20048;-92
2022/08/21 10:42:06;;;;;;;6.00;2.90;;;;;;;29.28;39.42;98536.56;6188794;23;20008;-92
2022/08/21 10:44:46;;;;;;;4.82;2.80;;;;;;;29.39;40.16;98535.22;6214609;23;20012;-92
2022/08/21 10:47:34;;;;;;;5.07;2.72;;;;;;;29.65;39.86;98534.88;6213452;23;20450;-93
2022/08/21 10:50:27;;;;;;;5.40;2.85;;;;;;;29.62;39.81;98525.41;6188494;23;20016;-94
2022/08/21 10:53:11;;;;;;;6.78;3.10;;;;;;;29.50;39.33;98526.75;6213839;23;20011;-93
2022/08/21 10:55:50;;;;;;;7.05;3.45;;;;;;;29.48;39.80;98526.38;6215632;23;20027;-93
2022/08/21 10:58:31;;;;;;;7.28;2.90;;;;;;;29.52;40.34;98515.25;6213533;23;19996;-93
2022/08/21 11:01:17;;;;;;;8.75;2.80;;;;;;;29.81;39.83;98524.75;6190880;23;20022;-93
2022/08/21 11:03:44;;;;;;;7.85;3.47;;;;;;;29.46;39.45;98509.38;6188731;23;20004;-92
2022/08/21 11:06:34;;;;;;;6.18;3.22;;;;;;;29.50;39.23;98512.88;6164483;23;20084;-93
2022/08/21 11:09:20;;;;;;;6.43;3.60;;;;;;;29.72;38.77;98505.09;6169478;23;20013;-93
2022/08/21 11:11:56;;;;;;;6.88;3.00;;;;;;;29.65;38.27;98510.69;6190245;23;20092;-93
2022/08/21 11:14:32;;;;;;;4.15;2.92;;;;;;;29.57;38.42;98487.03;6188989;23;20362;-93
2022/08/21 11:17:27;;;;;;;4.57;2.97;;;;;;;29.74;38.83;98505.44;6189773;23;20031;-92
2022/08/21 11:20:21;;;;;;;5.07;2.97;;;;;;;29.76;39.38;98485.59;6203393;23;20000;-92
2022/08/21 11:22:56;;;;;;;6.10;3.10;;;;;;;29.61;39.43;98482.22;6213507;23;20005;-92
2022/08/21 11:25:39;;;;;;;6.57;3.67;;;;;;;29.87;38.91;98488.22;6188644;23;20001;-94
2022/08/21 11:28:06;;;;;;;5.93;3.17;;;;;;;30.04;38.69;98486.34;6188458;23;20088;-93
2022/08/21 11:30:41;;;;;;;5.43;2.70;;;;;;;29.85;37.92;98479.53;6238667;23;20099;-92
2022/08/21 11:33:21;;;;;;;7.28;3.03;;;;;;;29.99;37.26;98477.31;6188048;23;20000;-91
2022/08/21 11:36:03;;;;;;;6.82;2.83;;;;;;;30.07;37.86;98466.88;6214719;23;20035;-92
2022/08/21 11:39:20;;;;;;;5.38;3.15;;;;;;;29.86;37.18;98475.53;6214017;23;20351;-91
2022/08/21 11:42:31;;;;;;;7.20;3.53;;;;;;;30.13;37.66;98464.38;6182391;23;20036;-92
2022/08/21 11:45:03;;;;;;;4.40;2.78;;;;;;;30.34;35.82;98461.28;6123124;23;20069;-90
2022/08/21 11:47:31;;;;;;;4.45;2.92;;;;;;;30.38;36.09;98455.63;6124012;23;20029;-93
2022/08/21 11:50:15;;;;;;;6.10;2.95;;;;;;;30.22;35.55;98462.63;6122849;23;20010;-92